Time;durP1;ratioP1;P1;durP2;ratioP2;P2;SDS_P1;SDS_P2;PMS_P1;PMS_P2;Temp;Humidity;BMP_temperature;BMP_pressure;BME280_temperature;BME280_humidity;BME280_pressure;Samples;Min_cycle;Max_cycle;Signal;HPM_P1;HPM_P2
2022/04/09 00:04:44;;;;;;;10.45;2.78;;;3.90;99.90;;;;;;10319500;28;20034;-89
2022/04/09 00:09:46;;;;;;;9.75;2.50;;;4.00;99.90;;;;;;10347829;28;20073;-90
2022/04/09 00:14:51;;;;;;;9.38;3.00;;;4.00;99.90;;;;;;10335787;28;20097;-90
2022/04/09 00:19:53;;;;;;;7.80;2.95;;;4.10;99.90;;;;;;10338639;28;20458;-91
2022/04/09 00:24:55;;;;;;;12.02;3.47;;;4.20;99.90;;;;;;10337429;28;20133;-91
2022/04/09 00:29:57;;;;;;;7.53;2.75;;;4.10;99.90;;;;;;10333070;28;20958;-91
2022/04/09 00:34:59;;;;;;;12.88;3.80;;;4.10;99.90;;;;;;10333498;28;20732;-91
2022/04/09 00:40:00;;;;;;;9.85;3.47;;;4.10;99.90;;;;;;10330750;28;20070;-91
2022/04/09 00:45:03;;;;;;;8.23;3.63;;;4.10;99.90;;;;;;10319132;28;20049;-90
2022/04/09 00:50:07;;;;;;;8.20;3.25;;;4.10;99.90;;;;;;10332512;28;20073;-91
2022/04/09 00:55:10;;;;;;;9.80;3.72;;;4.10;99.90;;;;;;10349216;28;20041;-90
2022/04/09 01:00:15;;;;;;;9.98;3.83;;;4.10;99.90;;;;;;10331687;28;20034;-91
2022/04/09 01:05:19;;;;;;;12.88;3.67;;;4.10;99.90;;;;;;10340339;28;20129;-91
2022/04/09 01:10:21;;;;;;;11.15;3.42;;;4.00;99.90;;;;;;10340796;28;20056;-91
2022/04/09 01:15:23;;;;;;;7.60;2.85;;;4.00;99.90;;;;;;10332946;28;20107;-90
2022/04/09 01:20:29;;;;;;;9.85;2.90;;;4.10;99.90;;;;;;10325814;28;20057;-89
2022/04/09 01:25:31;;;;;;;10.02;2.90;;;4.20;99.90;;;;;;10342277;28;20046;-90
2022/04/09 01:30:33;;;;;;;7.03;2.95;;;4.30;99.90;;;;;;10312527;28;20046;-89
2022/04/09 01:35:35;;;;;;;8.90;2.33;;;4.30;99.90;;;;;;10347213;28;20042;-90
2022/04/09 01:40:37;;;;;;;6.97;3.08;;;4.30;99.90;;;;;;10332806;28;20042;-90
2022/04/09 01:45:38;;;;;;;7.93;3.00;;;4.20;99.90;;;;;;10344292;28;20042;-90
2022/04/09 01:50:40;;;;;;;8.88;2.80;;;4.20;99.90;;;;;;10340218;28;20050;-89
2022/04/09 01:55:43;;;;;;;9.55;2.58;;;4.30;99.90;;;;;;10325686;28;20051;-90
2022/04/09 02:00:45;;;;;;;10.00;2.45;;;4.20;99.90;;;;;;10323413;28;20113;-90
2022/04/09 02:05:47;;;;;;;5.70;2.75;;;4.20;99.90;;;;;;10337935;28;20054;-90
2022/04/09 02:10:49;;;;;;;4.93;2.03;;;4.10;99.90;;;;;;10343419;28;20511;-89
2022/04/09 02:15:50;;;;;;;6.53;2.20;;;4.10;99.90;;;;;;10320989;28;20105;-89
2022/04/09 02:20:54;;;;;;;10.57;2.35;;;4.10;99.90;;;;;;10335574;28;20401;-89
2022/04/09 02:25:56;;;;;;;7.88;2.22;;;4.00;99.90;;;;;;10311466;28;20068;-90
2022/04/09 02:30:58;;;;;;;6.55;1.70;;;3.90;99.90;;;;;;10340349;28;20056;-90
2022/04/09 02:36:00;;;;;;;6.60;1.90;;;3.90;99.90;;;;;;10334422;28;20048;-91
2022/04/09 02:41:02;;;;;;;6.55;2.17;;;3.80;99.90;;;;;;10326455;28;20489;-90
2022/04/09 02:46:04;;;;;;;6.90;1.33;;;3.90;99.90;;;;;;10332137;28;20132;-90
2022/04/09 02:51:08;;;;;;;6.47;2.78;;;3.90;99.90;;;;;;10339489;28;20072;-89
2022/04/09 02:56:10;;;;;;;5.20;2.65;;;3.90;99.90;;;;;;10327710;28;20034;-90
2022/04/09 03:01:12;;;;;;;7.35;2.47;;;3.90;99.90;;;;;;10330461;28;20161;-90
2022/04/09 03:06:14;;;;;;;8.55;2.95;;;3.90;99.90;;;;;;10335513;28;20053;-89
2022/04/09 03:11:16;;;;;;;5.45;1.92;;;3.90;99.90;;;;;;10314511;28;20034;-89
2022/04/09 03:16:18;;;;;;;3.58;2.03;;;3.90;99.90;;;;;;10340212;28;20090;-89
2022/04/09 03:21:20;;;;;;;7.72;2.63;;;3.90;99.90;;;;;;10328668;28;20022;-89
2022/04/09 03:26:22;;;;;;;8.60;2.70;;;3.80;99.90;;;;;;10332155;28;20054;-89
2022/04/09 03:31:24;;;;;;;6.97;2.28;;;3.80;99.90;;;;;;10334541;28;20048;-89
2022/04/09 03:36:26;;;;;;;8.35;2.65;;;3.70;99.90;;;;;;10337919;28;20057;-88
2022/04/09 03:41:28;;;;;;;8.75;1.60;;;3.80;99.90;;;;;;10336158;28;20126;-89
2022/04/09 03:46:29;;;;;;;4.38;1.45;;;3.70;99.90;;;;;;10336360;28;20052;-89
2022/04/09 03:51:31;;;;;;;8.57;1.40;;;3.70;99.90;;;;;;10340625;28;20129;-88
2022/04/09 03:56:34;;;;;;;6.32;1.45;;;3.80;99.90;;;;;;10339517;28;20050;-89
2022/04/09 04:01:37;;;;;;;5.03;1.63;;;3.80;99.90;;;;;;10329990;28;20934;-90
2022/04/09 04:06:42;;;;;;;12.02;2.22;;;3.80;99.90;;;;;;10341665;28;20050;-89
2022/04/09 04:11:44;;;;;;;4.57;1.70;;;3.90;99.90;;;;;;10320672;28;20072;-87
2022/04/09 04:16:46;;;;;;;5.10;1.63;;;4.00;99.90;;;;;;10336004;28;20399;-87
2022/04/09 04:21:48;;;;;;;8.38;1.92;;;4.00;99.90;;;;;;10326125;28;20058;-87
2022/04/09 04:26:50;;;;;;;7.07;2.17;;;4.10;99.90;;;;;;10337014;28;20125;-88
2022/04/09 04:31:52;;;;;;;4.70;1.77;;;4.20;99.90;;;;;;10310155;28;20124;-87
2022/04/09 04:36:55;;;;;;;5.07;0.98;;;4.20;99.90;;;;;;10329251;28;20139;-88
2022/04/09 04:41:56;;;;;;;2.13;1.08;;;4.30;99.90;;;;;;10318824;28;20125;-90
2022/04/09 04:46:58;;;;;;;7.25;1.45;;;4.40;99.90;;;;;;10328271;28;20053;-89
2022/04/09 04:52:01;;;;;;;8.73;1.75;;;4.50;99.90;;;;;;10327993;28;20534;-90
2022/04/09 04:57:04;;;;;;;3.15;0.80;;;4.50;99.90;;;;;;10339915;28;20382;-89
2022/04/09 05:02:06;;;;;;;6.47;1.10;;;4.60;99.90;;;;;;10331630;28;20081;-89
2022/04/09 05:07:08;;;;;;;9.65;1.40;;;4.70;99.90;;;;;;10335268;28;20054;-89
2022/04/09 05:12:10;;;;;;;8.25;1.08;;;4.80;99.90;;;;;;10348679;28;20074;-89
2022/04/09 05:17:12;;;;;;;5.93;1.10;;;4.90;99.90;;;;;;10349496;28;20050;-89
2022/04/09 05:22:14;;;;;;;4.60;1.48;;;4.90;99.90;;;;;;10346354;28;20731;-89
2022/04/09 05:27:16;;;;;;;5.97;1.30;;;4.90;99.90;;;;;;10342967;28;20054;-89
2022/04/09 05:32:18;;;;;;;5.90;0.90;;;4.90;99.90;;;;;;10329659;28;20112;-89
2022/04/09 05:37:20;;;;;;;8.13;0.70;;;5.00;99.90;;;;;;10323824;28;20049;-89
2022/04/09 05:42:24;;;;;;;5.88;0.90;;;5.00;99.90;;;;;;10315111;28;20042;-90
2022/04/09 05:47:26;;;;;;;4.25;0.82;;;5.10;99.90;;;;;;10325973;28;20081;-89
2022/04/09 05:52:28;;;;;;;2.45;0.90;;;5.10;99.90;;;;;;10342434;28;20046;-88
2022/04/09 05:57:31;;;;;;;7.13;0.73;;;5.10;99.90;;;;;;10320867;28;20046;-88
2022/04/09 06:02:35;;;;;;;1.77;0.47;;;5.30;99.90;;;;;;10318421;28;20090;-88
2022/04/09 06:07:38;;;;;;;8.00;0.70;;;5.40;99.90;;;;;;10339015;28;20644;-89
2022/04/09 06:12:40;;;;;;;4.43;0.60;;;5.40;99.90;;;;;;10326143;28;20042;-89
2022/04/09 06:17:42;;;;;;;13.25;1.00;;;5.40;99.90;;;;;;10335964;28;20054;-89
2022/04/09 06:22:43;;;;;;;6.03;0.50;;;5.50;99.90;;;;;;10334329;28;20108;-89
2022/04/09 06:27:45;;;;;;;12.73;0.43;;;5.60;99.60;;;;;;10330797;28;20385;-89
2022/04/09 06:32:48;;;;;;;0.10;0.05;;;5.70;99.90;;;;;;10327170;28;20049;-89
2022/04/09 06:37:49;;;;;;;5.07;0.40;;;5.70;97.10;;;;;;10324542;28;20053;-89
2022/04/09 06:42:51;;;;;;;4.15;0.60;;;5.70;99.00;;;;;;10333913;28;20114;-88
2022/04/09 06:47:54;;;;;;;6.47;0.70;;;5.80;99.30;;;;;;10314018;28;20062;-89
2022/04/09 06:52:56;;;;;;;3.55;1.08;;;5.80;99.90;;;;;;10334825;28;20054;-89
2022/04/09 06:58:01;;;;;;;6.38;0.50;;;5.90;99.90;;;;;;10313685;28;20047;-89
2022/04/09 07:03:10;;;;;;;9.55;0.60;;;6.00;99.70;;;;;;10334078;28;20050;-89
2022/04/09 07:08:12;;;;;;;4.22;0.45;;;6.00;99.90;;;;;;10315831;28;20482;-89
2022/04/09 07:13:14;;;;;;;6.53;0.45;;;6.00;99.90;;;;;;10329256;28;20582;-89
2022/04/09 07:18:16;;;;;;;9.63;0.60;;;6.10;99.60;;;;;;10335419;28;20137;-89
2022/04/09 07:23:18;;;;;;;4.80;0.50;;;6.10;99.90;;;;;;10314956;28;20085;-88
2022/04/09 07:28:20;;;;;;;2.92;0.28;;;6.10;99.90;;;;;;10300597;28;20062;-89
2022/04/09 07:33:22;;;;;;;3.30;0.50;;;6.10;99.90;;;;;;10315649;28;20062;-88
2022/04/09 07:38:29;;;;;;;;;;;6.20;99.90;;;;;;10322753;28;20074;-89
2022/04/09 07:43:31;;;;;;;5.05;0.50;;;6.10;99.90;;;;;;10340788;28;19964;-89
2022/04/09 07:48:34;;;;;;;4.68;1.02;;;6.10;99.90;;;;;;10321518;28;20563;-89
2022/04/09 07:53:36;;;;;;;7.70;0.38;;;6.10;99.90;;;;;;10315468;28;20073;-89
2022/04/09 07:58:38;;;;;;;2.88;0.45;;;6.10;99.90;;;;;;10327318;28;20084;-89
2022/04/09 08:03:40;;;;;;;5.22;0.80;;;6.20;99.90;;;;;;10330457;28;20092;-90
2022/04/09 08:08:42;;;;;;;3.92;0.30;;;6.20;99.90;;;;;;10329462;28;20472;-90
2022/04/09 08:13:44;;;;;;;8.10;0.50;;;6.20;98.80;;;;;;10321057;28;20455;-90
2022/04/09 08:18:50;;;;;;;1.13;0.30;;;6.30;97.20;;;;;;10332733;28;20056;-89
2022/04/09 08:23:53;;;;;;;7.00;0.80;;;6.40;91.40;;;;;;10307955;28;20085;-89
2022/04/09 08:28:56;;;;;;;7.82;0.50;;;6.50;91.40;;;;;;10297565;28;20189;-89
2022/04/09 08:33:59;;;;;;;1.80;0.50;;;6.60;91.90;;;;;;10336157;28;20048;-88
2022/04/09 08:39:01;;;;;;;0.17;0.10;;;6.60;87.50;;;;;;10354339;28;20046;-89
2022/04/09 08:44:04;;;;;;;1.33;0.45;;;6.70;86.80;;;;;;10322259;28;20109;-88
2022/04/09 08:49:07;;;;;;;6.28;0.43;;;6.80;91.30;;;;;;10341525;28;20051;-88
2022/04/09 08:54:10;;;;;;;7.55;0.40;;;7.00;91.00;;;;;;10328839;28;20125;-88
2022/04/09 08:59:12;;;;;;;1.45;0.10;;;7.00;83.80;;;;;;10325844;28;20061;-88
2022/04/09 09:04:17;;;;;;;4.57;0.22;;;7.10;84.50;;;;;;10340519;28;20066;-88
2022/04/09 09:09:29;;;;;;;8.77;0.60;;;7.10;85.10;;;;;;10339301;28;20096;-89
2022/04/09 09:14:33;;;;;;;7.28;0.32;;;7.20;81.40;;;;;;10341774;28;20504;-89
2022/04/09 09:19:48;;;;;;;4.40;0.20;;;7.40;86.70;;;;;;10313715;28;20106;-89
2022/04/09 09:25:05;;;;;;;3.95;0.20;;;7.60;77.10;;;;;;10322874;28;20124;-89
2022/04/09 09:30:13;;;;;;;1.58;0.10;;;7.60;75.30;;;;;;10346160;28;20050;-88
2022/04/09 09:35:15;;;;;;;2.55;0.52;;;7.70;74.50;;;;;;10351516;28;20061;-88
2022/04/09 09:40:31;;;;;;;7.82;0.50;;;7.70;73.40;;;;;;10347159;28;20526;-90
2022/04/09 09:45:41;;;;;;;1.73;0.20;;;7.90;77.00;;;;;;10351587;28;20025;-89
2022/04/09 09:50:43;;;;;;;3.70;0.28;;;8.00;74.40;;;;;;10342481;28;20061;-88
2022/04/09 09:55:45;;;;;;;2.05;0.28;;;8.10;73.90;;;;;;10365457;28;20057;-88
2022/04/09 10:00:48;;;;;;;3.70;0.20;;;8.00;68.60;;;;;;10322033;28;20051;-89
2022/04/09 10:05:52;;;;;;;0.32;0.10;;;7.90;71.50;;;;;;10323048;28;20078;-88
2022/04/09 10:11:00;;;;;;;3.05;0.25;;;7.90;71.30;;;;;;10308912;28;20053;-89
2022/04/09 10:16:04;;;;;;;2.28;0.30;;;8.00;73.80;;;;;;10320062;28;20061;-89
2022/04/09 10:21:07;;;;;;;7.68;0.30;;;8.10;73.30;;;;;;10332158;28;20050;-88
2022/04/09 10:26:09;;;;;;;3.42;0.40;;;8.60;68.90;;;;;;10316727;28;20054;-89
2022/04/09 10:31:24;;;;;;;1.30;0.73;;;8.80;68.60;;;;;;10323928;28;20053;-88
2022/04/09 10:36:47;;;;;;;5.82;1.30;;;9.20;70.20;;;;;;10333208;28;20062;-89
2022/04/09 10:41:50;;;;;;;4.15;0.30;;;9.10;66.40;;;;;;10345632;28;20053;-89
2022/04/09 10:46:52;;;;;;;0.98;0.38;;;8.90;62.80;;;;;;10316005;28;20103;-88
2022/04/09 10:52:14;;;;;;;0.10;0.10;;;9.40;64.70;;;;;;10319709;28;20050;-89
2022/04/09 10:57:23;;;;;;;4.45;0.40;;;9.30;64.20;;;;;;10348296;28;20034;-88
2022/04/09 11:02:26;;;;;;;0.95;0.03;;;9.20;67.20;;;;;;10345464;28;20041;-89
2022/04/09 11:07:28;;;;;;;2.10;0.38;;;8.30;73.90;;;;;;10309858;28;20113;-88
2022/04/09 11:12:39;;;;;;;2.75;0.17;;;7.10;89.90;;;;;;10331850;28;20056;-90
2022/04/09 11:17:47;;;;;;;0.10;0.10;;;6.70;99.90;;;;;;10341708;28;20047;-90
2022/04/09 11:22:56;;;;;;;1.73;0.20;;;6.80;98.20;;;;;;10324835;28;20042;-91
2022/04/09 11:28:19;;;;;;;2.00;0.20;;;7.20;99.90;;;;;;10338339;28;20026;-91
2022/04/09 11:33:22;;;;;;;3.92;0.20;;;8.10;99.90;;;;;;10328170;28;20066;-90
2022/04/09 11:38:26;;;;;;;1.55;0.10;;;8.80;87.60;;;;;;10302845;28;20042;-90
2022/04/09 11:43:28;;;;;;;0.03;0.00;;;9.10;80.40;;;;;;10339907;28;20038;-90
2022/04/09 11:48:35;;;;;;;0.00;0.00;;;8.20;80.60;;;;;;10331366;28;20101;-89
2022/04/09 11:53:44;;;;;;;0.20;0.10;;;7.80;84.50;;;;;;10319034;28;20053;-89
2022/04/09 11:58:49;;;;;;;3.10;0.25;;;7.60;87.70;;;;;;10330191;28;20056;-89
2022/04/09 12:03:54;;;;;;;0.55;0.10;;;8.00;79.30;;;;;;10327512;28;20038;-89
2022/04/09 12:08:56;;;;;;;1.50;0.10;;;8.50;80.40;;;;;;10325961;28;20054;-89
2022/04/09 12:14:13;;;;;;;1.92;0.10;;;9.10;80.10;;;;;;10335849;28;20057;-90
2022/04/09 12:19:15;;;;;;;0.10;0.00;;;9.70;74.80;;;;;;10340245;28;20058;-89
2022/04/09 12:24:17;;;;;;;2.20;0.00;;;9.80;71.30;;;;;;10344482;28;20081;-89
2022/04/09 12:29:22;;;;;;;0.32;0.00;;;9.50;67.20;;;;;;10325418;28;20512;-89
2022/04/09 12:34:24;;;;;;;1.55;0.10;;;9.30;67.90;;;;;;10355060;28;20077;-88
2022/04/09 12:39:27;;;;;;;3.42;0.35;;;9.40;69.40;;;;;;10325259;28;20049;-88
2022/04/09 12:44:34;;;;;;;4.38;0.20;;;10.00;68.70;;;;;;10345503;28;20581;-89
2022/04/09 12:49:38;;;;;;;1.33;0.10;;;10.40;64.90;;;;;;10381372;28;20078;-88
2022/04/09 12:54:40;;;;;;;0.25;0.00;;;10.70;61.40;;;;;;10369049;28;20034;-88
2022/04/09 12:59:43;;;;;;;1.80;0.28;;;10.60;58.80;;;;;;10369376;28;20046;-88
2022/04/09 13:04:45;;;;;;;4.68;0.20;;;10.00;59.50;;;;;;10367212;28;20057;-88
2022/04/09 13:09:47;;;;;;;4.80;0.22;;;10.10;61.70;;;;;;10352106;28;21163;-88
2022/04/09 13:14:49;;;;;;;0.65;0.10;;;9.90;62.30;;;;;;10360049;28;20089;-89
2022/04/09 13:19:50;;;;;;;3.00;0.38;;;10.60;56.10;;;;;;10344918;28;20065;-89
2022/04/09 13:24:57;;;;;;;1.45;0.20;;;10.90;50.00;;;;;;10344737;28;20038;-89
2022/04/09 13:30:00;;;;;;;4.32;0.57;;;10.80;55.20;;;;;;10353305;28;20098;-89
2022/04/09 13:35:03;;;;;;;1.75;0.40;;;10.70;55.30;;;;;;10366526;28;20038;-89
2022/04/09 13:40:05;;;;;;;0.20;0.10;;;10.60;57.30;;;;;;10367097;28;20080;-88
2022/04/09 13:45:08;;;;;;;0.00;0.00;;;10.50;57.20;;;;;;10354942;28;20087;-89
2022/04/09 13:50:10;;;;;;;1.30;0.10;;;10.30;58.40;;;;;;10342233;28;20057;-89
2022/04/09 13:55:13;;;;;;;1.52;0.20;;;10.60;60.20;;;;;;10368994;28;20153;-88
2022/04/09 14:00:15;;;;;;;3.97;0.50;;;11.00;56.90;;;;;;10350915;28;20133;-89
2022/04/09 14:05:20;;;;;;;5.32;0.40;;;11.10;54.50;;;;;;10344683;28;20064;-88
2022/04/09 14:10:27;;;;;;;5.38;0.20;;;12.00;53.70;;;;;;10368601;28;20077;-87
2022/04/09 14:15:29;;;;;;;2.95;0.28;;;11.80;54.70;;;;;;10356507;28;20050;-88
2022/04/09 14:20:31;;;;;;;1.17;0.10;;;11.40;51.80;;;;;;10341381;28;20050;-88
2022/04/09 14:25:33;;;;;;;2.20;0.10;;;11.00;53.30;;;;;;10314811;28;20077;-89
2022/04/09 14:30:35;;;;;;;4.03;0.20;;;10.80;56.00;;;;;;10323029;28;20125;-89
2022/04/09 14:35:37;;;;;;;2.63;0.17;;;10.80;56.50;;;;;;10351343;28;20704;-88
2022/04/09 14:40:39;;;;;;;2.63;0.20;;;11.30;54.40;;;;;;10331611;28;20134;-88
2022/04/09 14:45:43;;;;;;;2.75;0.50;;;11.50;54.20;;;;;;10352322;28;20124;-88
2022/04/09 14:50:45;;;;;;;5.00;0.63;;;11.60;51.40;;;;;;10348642;28;20056;-89
2022/04/09 14:55:47;;;;;;;1.38;0.10;;;11.60;52.30;;;;;;10304264;28;20046;-88
2022/04/09 15:00:50;;;;;;;4.72;0.30;;;11.40;53.00;;;;;;10330246;28;20027;-89
2022/04/09 15:05:52;;;;;;;1.67;0.47;;;11.10;54.30;;;;;;10327486;28;20031;-88
2022/04/09 15:10:54;;;;;;;1.75;0.30;;;10.80;54.20;;;;;;10342208;28;20077;-87
2022/04/09 15:15:56;;;;;;;1.48;0.28;;;10.80;54.70;;;;;;10336381;28;20082;-88
2022/04/09 15:21:00;;;;;;;2.33;0.40;;;10.70;55.50;;;;;;10336183;28;20069;-89
2022/04/09 15:26:03;;;;;;;0.73;0.20;;;11.10;55.80;;;;;;10336541;28;20185;-88
2022/04/09 15:31:06;;;;;;;0.50;0.10;;;10.90;52.20;;;;;;10328214;28;20066;-89
2022/04/09 15:36:08;;;;;;;1.80;0.43;;;11.20;51.90;;;;;;10348574;28;20054;-89
2022/04/09 15:41:10;;;;;;;3.30;0.20;;;11.10;51.20;;;;;;10314492;28;20058;-89
2022/04/09 15:46:12;;;;;;;0.10;0.10;;;11.30;50.30;;;;;;10343738;28;20117;-88
2022/04/09 15:51:14;;;;;;;1.88;0.20;;;11.20;47.20;;;;;;10316010;28;20066;-88
2022/04/09 15:56:18;;;;;;;0.90;0.10;;;11.10;46.70;;;;;;10336636;28;20054;-88
2022/04/09 16:01:20;;;;;;;0.80;0.22;;;10.90;48.00;;;;;;10329642;28;20046;-88
2022/04/09 16:06:22;;;;;;;0.43;0.10;;;10.80;49.80;;;;;;10356845;28;20064;-88
2022/04/09 16:11:24;;;;;;;1.17;0.20;;;10.60;49.70;;;;;;10328079;28;20064;-88
2022/04/09 16:16:26;;;;;;;1.13;0.15;;;10.50;51.90;;;;;;10355925;28;20073;-88
2022/04/09 16:21:28;;;;;;;0.00;0.00;;;10.40;53.20;;;;;;10336707;28;20054;-87
2022/04/09 16:26:30;;;;;;;1.00;0.25;;;10.30;54.10;;;;;;10334899;28;20052;-88
2022/04/09 16:31:32;;;;;;;0.15;0.10;;;10.30;54.90;;;;;;10325813;28;20109;-89
2022/04/09 16:36:34;;;;;;;0.20;0.20;;;10.10;54.40;;;;;;10316226;28;20062;-89
2022/04/09 16:41:36;;;;;;;0.30;0.20;;;10.20;56.80;;;;;;10336246;28;20048;-88
2022/04/09 16:46:37;;;;;;;3.20;0.40;;;10.30;57.90;;;;;;10350295;28;20500;-87
2022/04/09 16:51:39;;;;;;;0.43;0.28;;;10.40;58.50;;;;;;10313774;28;20062;-88
2022/04/09 16:56:41;;;;;;;0.85;0.20;;;10.50;59.80;;;;;;10348545;28;20042;-88
2022/04/09 17:01:43;;;;;;;3.08;0.60;;;10.40;59.90;;;;;;10344377;28;20060;-88
2022/04/09 17:06:45;;;;;;;1.85;0.68;;;10.50;60.10;;;;;;10321095;28;20051;-88
2022/04/09 17:11:47;;;;;;;1.38;0.35;;;10.30;59.80;;;;;;10346356;28;20050;-88
2022/04/09 17:16:49;;;;;;;3.47;0.55;;;10.20;61.00;;;;;;10329863;28;20511;-89
2022/04/09 17:21:51;;;;;;;1.08;0.30;;;10.10;60.40;;;;;;10340384;28;20034;-88
2022/04/09 17:26:53;;;;;;;4.18;0.30;;;10.10;61.70;;;;;;10333517;28;20038;-88
2022/04/09 17:31:55;;;;;;;1.50;0.30;;;9.90;61.40;;;;;;10351480;28;20090;-88
2022/04/09 17:36:58;;;;;;;0.55;0.15;;;9.70;61.10;;;;;;10320066;28;20065;-88
2022/04/09 17:42:00;;;;;;;1.42;0.40;;;9.40;62.10;;;;;;10351971;28;20034;-87
2022/04/09 17:47:02;;;;;;;4.03;0.43;;;9.20;61.70;;;;;;10324997;28;20061;-89
2022/04/09 17:52:04;;;;;;;2.58;0.30;;;9.00;63.20;;;;;;10333208;28;20128;-87
2022/04/09 17:57:06;;;;;;;2.53;0.65;;;8.80;63.90;;;;;;10336691;28;20049;-87
2022/04/09 18:02:08;;;;;;;1.10;0.13;;;8.60;65.00;;;;;;10340458;28;20049;-88
2022/04/09 18:07:10;;;;;;;0.30;0.10;;;8.40;63.40;;;;;;10342608;28;20112;-87
2022/04/09 18:12:12;;;;;;;3.30;0.20;;;8.30;65.20;;;;;;10342971;28;20077;-88
2022/04/09 18:17:14;;;;;;;0.32;0.30;;;8.10;65.80;;;;;;10333467;28;20082;-86
2022/04/09 18:22:16;;;;;;;0.77;0.25;;;7.90;66.80;;;;;;10330662;28;20046;-88
2022/04/09 18:27:20;;;;;;;3.35;0.35;;;7.80;67.70;;;;;;10342402;28;20109;-88
2022/04/09 18:32:23;;;;;;;1.30;0.57;;;7.70;68.20;;;;;;10303902;28;20049;-88
2022/04/09 18:37:25;;;;;;;1.27;0.38;;;7.60;68.50;;;;;;10326000;28;20049;-88
2022/04/09 18:42:27;;;;;;;0.75;0.38;;;7.50;68.80;;;;;;10314580;28;20125;-88
2022/04/09 18:47:29;;;;;;;2.95;0.40;;;7.50;69.20;;;;;;10328105;28;20122;-87
2022/04/09 18:52:31;;;;;;;0.50;0.28;;;7.50;69.70;;;;;;10315777;28;20057;-88
2022/04/09 18:57:34;;;;;;;2.35;0.40;;;7.40;70.20;;;;;;10332222;28;20121;-87
2022/04/09 19:02:36;;;;;;;1.73;0.47;;;7.30;70.60;;;;;;10321538;28;20408;-87
2022/04/09 19:07:38;;;;;;;0.75;0.50;;;7.30;71.30;;;;;;10293139;28;20598;-87
2022/04/09 19:12:49;;;;;;;3.72;0.43;;;7.20;72.20;;;;;;10329680;28;20057;-87
2022/04/09 19:17:51;;;;;;;2.95;0.50;;;7.10;72.30;;;;;;10339622;28;20050;-87
2022/04/09 19:22:53;;;;;;;2.75;0.40;;;7.00;73.10;;;;;;10333105;28;20053;-87
2022/04/09 19:27:55;;;;;;;0.85;0.40;;;6.90;73.70;;;;;;10337756;28;20521;-86
2022/04/09 19:32:57;;;;;;;1.50;0.40;;;6.90;74.80;;;;;;10311290;28;20049;-87
2022/04/09 19:38:01;;;;;;;3.22;0.90;;;6.70;76.00;;;;;;10338798;28;20064;-87
2022/04/09 19:43:05;;;;;;;2.92;0.90;;;6.60;76.20;;;;;;10326282;28;20046;-87
2022/04/09 19:48:09;;;;;;;2.05;0.50;;;6.60;76.70;;;;;;10307458;28;20090;-88
2022/04/09 19:53:12;;;;;;;0.55;0.30;;;6.50;77.70;;;;;;10323226;28;20049;-88
2022/04/09 19:58:14;;;;;;;2.45;0.35;;;6.40;78.60;;;;;;10297451;28;20074;-87
2022/04/09 20:03:16;;;;;;;3.10;0.60;;;6.30;79.90;;;;;;10322313;28;20046;-88
2022/04/09 20:08:18;;;;;;;3.25;0.40;;;6.20;79.90;;;;;;10319372;28;20058;-86
2022/04/09 20:13:20;;;;;;;3.58;0.70;;;6.10;80.80;;;;;;10333293;28;20074;-87
2022/04/09 20:18:22;;;;;;;2.35;0.80;;;6.00;81.90;;;;;;10308295;28;20066;-88
2022/04/09 20:23:24;;;;;;;5.20;0.93;;;5.90;83.20;;;;;;10315459;28;20065;-87
2022/04/09 20:28:26;;;;;;;1.98;0.65;;;5.80;84.30;;;;;;10329602;28;20065;-87
2022/04/09 20:33:28;;;;;;;0.80;0.38;;;5.70;86.20;;;;;;10332716;28;20069;-86
2022/04/09 20:38:30;;;;;;;3.10;0.80;;;5.70;87.40;;;;;;10325312;28;20048;-87
2022/04/09 20:43:32;;;;;;;2.00;0.80;;;5.60;89.40;;;;;;10336247;28;20049;-87
2022/04/09 20:48:34;;;;;;;4.13;0.85;;;5.50;90.40;;;;;;10311726;28;20502;-87
2022/04/09 20:53:36;;;;;;;3.03;1.02;;;5.50;90.60;;;;;;10320413;28;20062;-87
2022/04/09 20:58:40;;;;;;;1.17;0.65;;;5.40;91.40;;;;;;10310327;28;20050;-87
2022/04/09 21:03:45;;;;;;;1.52;0.70;;;5.40;92.60;;;;;;10331162;28;20392;-88
2022/04/09 21:08:46;;;;;;;3.78;0.77;;;5.30;93.50;;;;;;10346206;28;20055;-88
2022/04/09 21:13:48;;;;;;;5.22;0.88;;;5.20;94.10;;;;;;10347414;28;20136;-88
2022/04/09 21:18:50;;;;;;;1.98;0.70;;;5.20;94.80;;;;;;10324055;28;20061;-88
2022/04/09 21:23:52;;;;;;;3.13;0.52;;;5.10;96.10;;;;;;10337104;28;20090;-88
2022/04/09 21:28:54;;;;;;;2.03;0.60;;;5.00;97.50;;;;;;10327869;28;20046;-87
2022/04/09 21:33:56;;;;;;;2.22;0.80;;;5.00;98.60;;;;;;10322507;28;20519;-87
2022/04/09 21:39:01;;;;;;;2.47;0.70;;;5.00;99.10;;;;;;10337799;28;20821;-88
2022/04/09 21:44:04;;;;;;;3.10;0.70;;;5.00;99.50;;;;;;10326765;28;20081;-88
2022/04/09 21:49:07;;;;;;;1.85;0.80;;;5.00;99.90;;;;;;10323376;28;20068;-87
2022/04/09 21:54:09;;;;;;;4.95;1.20;;;4.90;99.90;;;;;;10322876;28;20081;-88
2022/04/09 21:59:11;;;;;;;3.30;0.93;;;4.90;99.90;;;;;;10343260;28;20101;-87
2022/04/09 22:04:13;;;;;;;0.88;0.50;;;4.80;99.90;;;;;;10333867;28;20057;-87
2022/04/09 22:09:16;;;;;;;2.65;0.80;;;4.70;99.90;;;;;;10319108;28;20113;-88
2022/04/09 22:14:19;;;;;;;2.08;0.80;;;4.70;99.90;;;;;;10317787;28;20066;-87
2022/04/09 22:19:21;;;;;;;4.07;0.70;;;4.60;99.90;;;;;;10322490;28;20046;-88
2022/04/09 22:24:23;;;;;;;4.55;1.27;;;4.50;99.90;;;;;;10323873;28;20069;-88
2022/04/09 22:29:25;;;;;;;3.55;1.00;;;4.50;99.90;;;;;;10330135;28;20041;-88
2022/04/09 22:34:28;;;;;;;3.22;0.80;;;4.50;99.90;;;;;;10319245;28;20072;-88
2022/04/09 22:39:30;;;;;;;3.20;0.70;;;4.50;98.20;;;;;;10329632;28;20046;-87
2022/04/09 22:44:32;;;;;;;1.13;0.50;;;4.50;99.40;;;;;;10349587;28;20073;-88
2022/04/09 22:49:34;;;;;;;1.35;0.60;;;4.70;96.20;;;;;;10297988;28;20050;-87
2022/04/09 22:54:36;;;;;;;7.68;0.90;;;4.70;98.20;;;;;;10319194;28;20052;-86
2022/04/09 22:59:38;;;;;;;3.63;1.25;;;4.50;99.90;;;;;;10317919;28;20049;-87
2022/04/09 23:05:10;;;;;;;3.83;0.98;;;4.30;99.90;;;;;;10233917;28;20121;-86
2022/04/09 23:10:12;;;;;;;5.10;0.90;;;4.20;99.90;;;;;;10285098;28;20153;-87
2022/04/09 23:15:19;;;;;;;4.03;0.80;;;4.10;99.90;;;;;;10325790;28;20056;-87
2022/04/09 23:20:21;;;;;;;1.50;0.70;;;4.10;99.90;;;;;;10304220;28;20062;-87
2022/04/09 23:25:23;;;;;;;3.13;0.40;;;4.00;99.90;;;;;;10288628;28;20066;-86
2022/04/09 23:30:25;;;;;;;0.77;0.20;;;4.20;94.10;;;;;;10335510;28;20050;-87
2022/04/09 23:35:27;;;;;;;2.03;1.00;;;4.40;86.70;;;;;;10310899;28;20113;-87
2022/04/09 23:40:28;;;;;;;2.92;0.30;;;4.60;81.40;;;;;;10335953;28;20057;-88
2022/04/09 23:45:30;;;;;;;4.60;0.38;;;4.60;81.60;;;;;;10317179;28;20073;-88
2022/04/09 23:50:32;;;;;;;4.57;0.20;;;4.60;83.20;;;;;;10330776;28;20469;-88
2022/04/09 23:55:34;;;;;;;1.88;0.38;;;4.50;83.20;;;;;;10305152;28;20050;-88
